Terminal Aerodrome Forecast
Issued by NWS

Home | Current Version | Previous Version | Graphics & Text | Print | Product List | Glossary On
Versions: 1 2 3 4 5 6 7 8 9 10 11 12 13 14 15 16 17 18 19 20 21 22 23 24 25 26 27 28 29 30 31 32 33 34
000
FTUS45 KGGW 101700
TAFOLF
TAF
KOLF 101720Z 1018/1118 28012KT P6SM FEW110
     FM102100 34012KT P6SM FEW100
     FM110300 01007KT P6SM FEW100
     FM110600 VRB06KT P6SM VCSH SCT100
     FM111200 VRB06KT P6SM SCT090=

USA.gov is the U.S. government's official web portal to all federal, state and local government web resources and services.